createdAt,value
2018-04-07T00:01:20.939Z,84.15
2018-04-07T00:03:49.134Z,84.30
2018-04-07T00:06:18.497Z,84.30
2018-04-07T00:08:46.036Z,85.05
2018-04-07T00:11:18.424Z,84.93
2018-04-07T00:13:46.039Z,85.22
2018-04-07T00:16:14.551Z,84.88
2018-04-07T00:18:44.707Z,85.01
2018-04-07T00:21:16.819Z,84.12
2018-04-07T00:23:47.224Z,85.19
2018-04-07T00:26:15.639Z,83.79
2018-04-07T00:28:44.154Z,83.93
2018-04-07T00:31:11.702Z,84.68
2018-04-07T00:33:40.263Z,84.44
2018-04-07T00:38:43.843Z,86.01
2018-04-07T00:41:12.345Z,86.05
2018-04-07T00:43:40.915Z,85.30
2018-04-07T00:46:08.503Z,85.28
2018-04-07T00:48:36.047Z,85.70
2018-04-07T00:51:03.615Z,85.54
2018-04-07T00:53:33.358Z,85.71
2018-04-07T00:56:02.965Z,87.69
2018-04-07T00:58:30.548Z,87.12
2018-04-07T01:00:58.132Z,87.19
2018-04-07T01:03:25.716Z,86.61
2018-04-07T01:05:54.094Z,86.14
2018-04-07T01:11:11.855Z,85.51
2018-04-07T01:13:39.448Z,86.02
2018-04-07T01:16:07.037Z,86.18
2018-04-07T01:18:34.654Z,86.82
2018-04-07T01:21:02.249Z,86.50
2018-04-07T01:23:29.918Z,86.89
2018-04-07T01:25:58.396Z,85.92
2018-04-07T01:28:26.659Z,85.82
2018-04-07T01:30:55.120Z,86.00
2018-04-07T01:33:23.409Z,86.22
2018-04-07T01:35:50.994Z,86.78
2018-04-07T01:38:19.574Z,87.31
2018-04-07T01:40:47.201Z,87.70
2018-04-07T01:43:14.914Z,87.54
2018-04-07T01:45:43.279Z,87.38
2018-04-07T01:48:10.849Z,87.12
2018-04-07T01:50:38.431Z,87.40
2018-04-07T01:53:06.023Z,87.27
2018-04-07T01:55:34.383Z,87.39
2018-04-07T01:58:02.782Z,87.34
2018-04-07T02:00:31.070Z,87.20
2018-04-07T02:02:58.668Z,86.88
2018-04-07T02:05:26.292Z,86.90
2018-04-07T02:07:53.898Z,86.99
2018-04-07T02:10:22.283Z,86.91
2018-04-07T02:12:50.689Z,86.37
2018-04-07T02:15:18.298Z,86.75
2018-04-07T02:17:45.874Z,86.45
2018-04-07T02:20:14.147Z,85.89
2018-04-07T02:22:41.787Z,86.22
2018-04-07T02:25:09.409Z,86.03
2018-04-07T02:27:36.999Z,85.23
2018-04-07T02:30:04.615Z,85.75
2018-04-07T02:32:32.993Z,85.76
2018-04-07T02:35:01.470Z,85.63
2018-04-07T02:37:29.050Z,86.22
2018-04-07T02:39:56.641Z,85.76
2018-04-07T02:42:24.228Z,84.44
2018-04-07T02:44:51.864Z,83.59
2018-04-07T02:47:19.477Z,84.28
2018-04-07T02:49:47.090Z,84.48
2018-04-07T02:52:14.699Z,84.49
2018-04-07T02:54:42.407Z,83.94
2018-04-07T02:57:09.983Z,83.71
2018-04-07T02:59:37.567Z,83.54
2018-04-07T03:02:05.160Z,83.74
2018-04-07T03:04:32.732Z,83.45
2018-04-07T03:07:00.321Z,83.34
2018-04-07T03:09:28.624Z,83.11
2018-04-07T03:11:56.997Z,83.64
2018-04-07T03:14:25.405Z,84.51
2018-04-07T03:16:53.005Z,84.03
2018-04-07T03:19:20.587Z,83.67
2018-04-07T03:21:48.200Z,83.68
2018-04-07T03:24:15.813Z,84.23
2018-04-07T03:26:43.470Z,83.85
2018-04-07T03:29:11.059Z,84.53
2018-04-07T03:31:38.634Z,83.80
2018-04-07T03:34:06.239Z,83.47
2018-04-07T03:36:33.815Z,83.89
2018-04-07T03:39:02.314Z,84.25
2018-04-07T03:41:29.895Z,84.83
2018-04-07T03:43:57.473Z,84.58
2018-04-07T03:46:25.052Z,84.77
2018-04-07T03:48:53.416Z,84.95
2018-04-07T03:51:20.995Z,84.62
2018-04-07T03:53:48.571Z,84.67
2018-04-07T03:56:16.178Z,84.44
2018-04-07T03:58:43.762Z,84.00
2018-04-07T04:01:11.334Z,84.36
2018-04-07T04:03:38.913Z,84.13
2018-04-07T04:06:07.326Z,84.43
2018-04-07T04:08:34.912Z,83.74
2018-04-07T04:11:02.492Z,83.89
2018-04-07T04:13:30.094Z,83.96
2018-04-07T04:15:57.674Z,83.51
2018-04-07T04:18:26.152Z,83.48
2018-04-07T04:20:53.739Z,83.27
2018-04-07T04:23:21.378Z,83.36
2018-04-07T04:25:49.736Z,83.92
2018-04-07T04:28:18.089Z,83.81
2018-04-07T04:30:46.563Z,82.69
2018-04-07T04:33:14.139Z,82.73
2018-04-07T04:35:41.744Z,82.48
2018-04-07T04:38:09.319Z,82.39
2018-04-07T04:40:36.934Z,81.83
2018-04-07T04:43:04.507Z,81.79
2018-04-07T04:45:32.093Z,80.87
2018-04-07T04:47:59.718Z,81.74
2018-04-07T04:50:27.293Z,81.80
2018-04-07T04:52:55.779Z,81.19
2018-04-07T04:55:23.351Z,80.56
2018-04-07T04:57:51.867Z,79.46
2018-04-07T05:00:20.211Z,80.13
2018-04-07T05:02:47.859Z,80.34
2018-04-07T05:05:15.466Z,79.86
2018-04-07T05:07:43.819Z,80.77
2018-04-07T05:10:12.291Z,80.51
2018-04-07T05:12:40.764Z,79.91
2018-04-07T05:15:08.367Z,80.13
2018-04-07T05:17:35.946Z,79.51
2018-04-07T05:20:04.296Z,79.92
2018-04-07T05:22:32.662Z,79.58
2018-04-07T05:25:00.234Z,79.74
2018-04-07T05:27:27.815Z,79.65
2018-04-07T05:29:56.287Z,79.31
2018-04-07T05:32:23.861Z,79.33
2018-04-07T05:34:51.470Z,76.48
2018-04-07T05:37:19.046Z,78.10
2018-04-07T05:39:46.685Z,76.44
2018-04-07T05:42:14.259Z,74.37
2018-04-07T05:44:41.853Z,75.67
2018-04-07T05:47:09.443Z,73.76
2018-04-07T05:49:37.026Z,74.77
2018-04-07T05:52:04.602Z,72.67
2018-04-07T05:54:32.176Z,72.38
2018-04-07T05:56:59.825Z,72.66
2018-04-07T05:59:27.400Z,71.70
2018-04-07T06:01:54.980Z,71.81
2018-04-07T06:04:22.559Z,70.14
2018-04-07T06:06:50.143Z,71.45
2018-04-07T06:09:17.723Z,69.13
2018-04-07T06:11:45.298Z,69.98
2018-04-07T06:14:12.945Z,69.98
2018-04-07T06:16:40.514Z,68.10
2018-04-07T06:19:08.109Z,67.50
2018-04-07T06:21:35.702Z,66.78
2018-04-07T06:24:03.363Z,66.97
2018-04-07T06:26:30.983Z,65.29
2018-04-07T06:28:58.590Z,64.80
2018-04-07T06:31:26.164Z,63.31
2018-04-07T06:33:53.747Z,63.97
2018-04-07T06:36:21.344Z,61.89
2018-04-07T06:38:48.974Z,63.30
2018-04-07T06:41:16.850Z,62.37
2018-04-07T06:43:44.485Z,62.17
2018-04-07T06:46:12.071Z,60.93
2018-04-07T06:48:39.650Z,60.27
2018-04-07T06:51:07.232Z,60.23
2018-04-07T06:53:34.864Z,57.71
2018-04-07T06:56:02.513Z,59.40
2018-04-07T06:58:30.087Z,57.42
2018-04-07T07:00:57.663Z,57.20
2018-04-07T07:03:25.241Z,56.91
2018-04-07T07:05:52.851Z,56.94
2018-04-07T07:08:20.427Z,55.65
2018-04-07T07:10:48.007Z,55.93
2018-04-07T07:13:15.635Z,56.18
2018-04-07T07:15:43.984Z,55.94
2018-04-07T07:18:11.584Z,55.32
2018-04-07T07:20:39.156Z,56.93
2018-04-07T07:23:06.730Z,55.76
2018-04-07T07:25:34.311Z,53.56
2018-04-07T07:28:01.922Z,53.91
2018-04-07T07:30:29.530Z,54.32
2018-04-07T07:32:57.147Z,54.06
2018-04-07T07:35:24.732Z,53.93
2018-04-07T07:37:52.308Z,53.97
2018-04-07T07:40:19.880Z,51.93
2018-04-07T07:42:47.454Z,53.46
2018-04-07T07:45:15.051Z,51.63
2018-04-07T07:47:42.624Z,52.63
2018-04-07T07:50:10.206Z,53.80
2018-04-07T07:52:37.787Z,52.26
2018-04-07T07:55:05.396Z,52.72
2018-04-07T07:57:33.060Z,52.38
2018-04-07T08:00:00.675Z,50.33
2018-04-07T08:02:28.289Z,48.91
2018-04-07T08:04:55.871Z,48.38
2018-04-07T08:07:23.455Z,49.53
2018-04-07T08:09:51.046Z,49.17
2018-04-07T08:12:18.626Z,49.05
2018-04-07T08:14:46.215Z,46.37
2018-04-07T08:17:13.796Z,48.57
2018-04-07T08:19:41.385Z,47.27
2018-04-07T08:22:09.736Z,49.47
2018-04-07T08:24:39.908Z,47.31
2018-04-07T08:27:07.495Z,45.70
2018-04-07T08:29:35.081Z,45.57
2018-04-07T08:32:02.681Z,45.97
2018-04-07T08:34:30.274Z,44.87
2018-04-07T08:36:57.886Z,43.84
2018-04-07T08:39:26.525Z,41.77
2018-04-07T08:41:54.074Z,42.57
2018-04-07T08:44:21.682Z,42.52
2018-04-07T08:46:50.043Z,43.54
2018-04-07T08:49:17.660Z,42.55
2018-04-07T08:51:45.235Z,42.36
2018-04-07T08:54:12.814Z,39.10
2018-04-07T08:56:40.391Z,40.41
2018-04-07T08:59:07.967Z,41.11
2018-04-07T09:01:35.550Z,41.66
2018-04-07T09:04:03.132Z,39.42
2018-04-07T09:06:30.703Z,39.63
2018-04-07T09:08:58.287Z,38.50
2018-04-07T09:11:25.876Z,39.39
2018-04-07T09:13:53.976Z,39.72
2018-04-07T09:16:21.556Z,38.96
2018-04-07T09:18:49.140Z,42.48
2018-04-07T09:21:16.731Z,41.17
2018-04-07T09:23:44.356Z,39.51
2018-04-07T09:26:11.941Z,37.42
2018-04-07T09:28:39.524Z,38.72
2018-04-07T09:31:13.056Z,39.25
2018-04-07T09:33:40.688Z,38.91
2018-04-07T09:36:08.308Z,37.22
2018-04-07T09:38:35.887Z,35.66
2018-04-07T09:41:03.469Z,37.55
2018-04-07T09:43:31.043Z,38.69
2018-04-07T09:45:58.625Z,35.31
2018-04-07T09:48:26.971Z,38.50
2018-04-07T09:50:54.595Z,37.38
2018-04-07T09:53:22.217Z,37.22
2018-04-07T09:55:49.791Z,37.00
2018-04-07T09:58:17.362Z,36.58
2018-04-07T10:00:47.723Z,37.00
2018-04-07T10:03:22.032Z,37.99
2018-04-07T10:05:50.551Z,36.23
2018-04-07T10:08:18.914Z,36.60
2018-04-07T10:10:47.407Z,35.96
2018-04-07T10:13:14.988Z,34.22
2018-04-07T10:15:42.571Z,35.50
2018-04-07T10:18:10.154Z,34.95
2018-04-07T10:20:37.739Z,36.61
2018-04-07T10:23:05.320Z,37.13
2018-04-07T10:25:32.901Z,36.59
2018-04-07T10:28:00.483Z,36.31
2018-04-07T10:30:28.062Z,35.36
2018-04-07T10:32:55.647Z,35.59
2018-04-07T10:35:24.020Z,36.02
2018-04-07T10:37:51.689Z,35.78
2018-04-07T10:40:19.261Z,35.03
2018-04-07T10:42:46.860Z,35.15
2018-04-07T10:45:14.504Z,33.39
2018-04-07T10:47:43.589Z,35.45
2018-04-07T10:50:11.180Z,35.47
2018-04-07T10:52:38.810Z,34.82
2018-04-07T10:55:06.372Z,33.40
2018-04-07T10:57:33.959Z,35.43
2018-04-07T11:00:01.543Z,35.58
2018-04-07T11:02:29.127Z,34.85
2018-04-07T11:04:56.794Z,34.36
2018-04-07T11:07:24.383Z,33.83
2018-04-07T11:09:52.728Z,34.56
2018-04-07T11:12:21.265Z,32.22
2018-04-07T11:14:48.842Z,32.90
2018-04-07T11:17:16.440Z,33.23
2018-04-07T11:19:44.039Z,32.70
2018-04-07T11:22:12.490Z,33.21
2018-04-07T11:24:40.074Z,33.41
2018-04-07T11:27:07.655Z,33.92
2018-04-07T11:29:35.232Z,33.77
2018-04-07T11:32:02.818Z,32.10
2018-04-07T11:34:30.400Z,32.23
2018-04-07T11:36:59.703Z,32.75
2018-04-07T11:39:27.302Z,31.69
2018-04-07T11:41:55.135Z,32.20
2018-04-07T11:44:22.719Z,31.30
2018-04-07T11:46:50.293Z,32.62
2018-04-07T11:49:17.925Z,31.84
2018-04-07T11:51:45.504Z,31.79
2018-04-07T11:54:13.080Z,30.91
2018-04-07T11:56:40.659Z,31.17
2018-04-07T11:59:08.334Z,31.28
2018-04-07T12:01:35.977Z,31.60
2018-04-07T12:04:03.632Z,30.67
2018-04-07T12:06:31.249Z,30.53
2018-04-07T12:08:58.840Z,30.70
2018-04-07T12:11:26.481Z,30.47
2018-04-07T12:13:54.035Z,31.29
2018-04-07T12:16:21.645Z,31.41
2018-04-07T12:18:49.255Z,28.93
2018-04-07T12:21:16.842Z,30.62
2018-04-07T12:23:44.418Z,30.59
2018-04-07T12:26:11.990Z,30.27
2018-04-07T12:28:40.472Z,30.29
2018-04-07T12:31:08.055Z,32.20
2018-04-07T12:33:36.559Z,31.18
2018-04-07T12:36:04.960Z,28.96
2018-04-07T12:38:33.271Z,30.34
2018-04-07T12:41:01.738Z,29.05
2018-04-07T12:43:30.111Z,28.86
2018-04-07T12:45:58.392Z,29.77
2018-04-07T12:48:26.882Z,29.52
2018-04-07T12:50:54.478Z,29.55
2018-04-07T12:53:22.055Z,29.75
2018-04-07T12:55:49.637Z,29.63
2018-04-07T12:58:18.037Z,29.47
2018-04-07T13:00:45.610Z,27.71
2018-04-07T13:03:13.202Z,28.30
2018-04-07T13:05:40.775Z,29.02
2018-04-07T13:08:08.353Z,29.14
2018-04-07T13:10:35.932Z,28.30
2018-04-07T13:13:03.514Z,29.26
2018-04-07T13:15:31.091Z,28.29
2018-04-07T13:17:58.679Z,28.75
2018-04-07T13:20:26.259Z,29.49
2018-04-07T13:22:53.832Z,29.41
2018-04-07T13:25:21.447Z,29.32
2018-04-07T13:27:49.918Z,28.86
2018-04-07T13:30:17.495Z,27.35
2018-04-07T13:32:45.075Z,27.80
2018-04-07T13:35:12.652Z,27.70
2018-04-07T13:37:40.226Z,27.59
2018-04-07T13:40:08.009Z,27.51
2018-04-07T13:42:35.647Z,27.61
2018-04-07T13:45:03.215Z,28.54
2018-04-07T13:47:30.795Z,29.02
2018-04-07T13:49:58.362Z,28.90
2018-04-07T13:52:25.940Z,29.25
2018-04-07T13:54:53.724Z,28.56
2018-04-07T13:57:21.304Z,27.45
2018-04-07T13:59:49.128Z,27.73
2018-04-07T14:02:16.756Z,28.15
2018-04-07T14:04:44.338Z,27.97
2018-04-07T14:07:11.932Z,28.67
2018-04-07T14:09:39.521Z,28.77
2018-04-07T14:12:07.091Z,29.29
2018-04-07T14:14:34.673Z,28.92
2018-04-07T14:17:02.323Z,29.16
2018-04-07T14:19:29.940Z,28.66
2018-04-07T14:21:58.290Z,30.31
2018-04-07T14:24:26.587Z,30.41
2018-04-07T14:26:54.962Z,29.53
2018-04-07T14:29:22.545Z,29.67
2018-04-07T14:31:50.120Z,27.78
2018-04-07T14:34:17.696Z,29.10
2018-04-07T14:36:45.270Z,28.48
2018-04-07T14:39:12.852Z,28.56
2018-04-07T14:41:41.310Z,28.42
2018-04-07T14:44:08.922Z,30.82
2018-04-07T14:46:36.499Z,28.55
2018-04-07T14:49:04.084Z,29.18
2018-04-07T14:51:31.664Z,29.72
2018-04-07T14:53:59.243Z,29.54
2018-04-07T14:56:27.763Z,28.31
2018-04-07T14:58:55.407Z,31.13
2018-04-07T15:01:24.191Z,29.19
2018-04-07T15:03:52.655Z,28.88
2018-04-07T15:06:20.355Z,29.04
2018-04-07T15:08:47.922Z,28.39
2018-04-07T15:11:15.500Z,27.95
2018-04-07T15:13:43.135Z,27.58
2018-04-07T15:16:10.808Z,27.45
2018-04-07T15:18:38.395Z,27.65
2018-04-07T15:21:06.670Z,27.99
2018-04-07T15:23:34.307Z,29.43
2018-04-07T15:26:02.689Z,28.29
2018-04-07T15:28:30.475Z,29.84
2018-04-07T15:30:58.064Z,29.04
2018-04-07T15:33:25.652Z,28.19
2018-04-07T15:35:53.222Z,28.91
2018-04-07T15:38:21.595Z,29.58
2018-04-07T15:40:49.984Z,29.24
2018-04-07T15:43:18.555Z,29.44
2018-04-07T15:45:46.161Z,30.29
2018-04-07T15:48:13.740Z,29.49
2018-04-07T15:50:41.350Z,28.70
2018-04-07T15:53:08.969Z,28.10
2018-04-07T15:55:36.555Z,29.00
2018-04-07T15:58:04.135Z,27.97
2018-04-07T16:00:32.498Z,28.60
2018-04-07T16:03:00.074Z,28.25
2018-04-07T16:05:27.656Z,28.86
2018-04-07T16:07:55.231Z,29.55
2018-04-07T16:10:23.419Z,30.25
2018-04-07T16:12:50.998Z,31.35
2018-04-07T16:15:18.574Z,31.29
2018-04-07T16:17:46.151Z,31.79
2018-04-07T16:20:14.651Z,32.42
2018-04-07T16:22:42.227Z,33.08
2018-04-07T16:25:09.820Z,33.09
2018-04-07T16:27:37.406Z,34.24
2018-04-07T16:30:05.014Z,34.29
2018-04-07T16:32:33.279Z,34.69
2018-04-07T16:35:01.600Z,35.09
2018-04-07T16:37:31.972Z,34.80
2018-04-07T16:39:59.671Z,37.10
2018-04-07T16:42:28.145Z,37.15
2018-04-07T16:44:57.407Z,35.81
2018-04-07T16:47:25.019Z,36.48
2018-04-07T16:49:53.289Z,37.71
2018-04-07T16:52:21.703Z,37.00
2018-04-07T16:54:49.308Z,37.53
2018-04-07T16:57:16.890Z,37.00
2018-04-07T16:59:44.482Z,37.49
2018-04-07T17:02:12.065Z,38.18
2018-04-07T17:04:39.649Z,39.31
2018-04-07T17:07:07.227Z,39.81
2018-04-07T17:09:35.727Z,39.21
2018-04-07T17:12:03.345Z,39.74
2018-04-07T17:14:30.922Z,39.57
2018-04-07T17:16:58.499Z,40.34
2018-04-07T17:19:26.087Z,40.89
2018-04-07T17:21:54.246Z,39.54
2018-04-07T17:24:21.916Z,40.47
2018-04-07T17:26:49.499Z,40.78
2018-04-07T17:29:17.092Z,41.46
2018-04-07T17:31:45.070Z,41.52
2018-04-07T17:34:13.356Z,41.88
2018-04-07T17:36:40.947Z,41.93
2018-04-07T17:39:08.523Z,42.00
2018-04-07T17:41:36.099Z,41.71
2018-04-07T17:44:03.687Z,42.05
2018-04-07T17:46:31.275Z,41.84
2018-04-07T17:49:06.100Z,42.38
2018-04-07T17:51:26.460Z,42.61
2018-04-07T17:53:54.048Z,42.59
2018-04-07T17:56:21.655Z,42.69
2018-04-07T17:58:49.251Z,43.12
2018-04-07T18:01:16.851Z,43.37
2018-04-07T18:03:45.200Z,43.47
2018-04-07T18:06:12.836Z,43.67
2018-04-07T18:08:40.441Z,44.05
2018-04-07T18:11:08.063Z,44.25
2018-04-07T18:13:35.656Z,44.56
2018-04-07T18:16:03.236Z,44.49
2018-04-07T18:18:31.755Z,44.66
2018-04-07T18:21:00.122Z,45.07
2018-04-07T18:23:27.754Z,45.49
2018-04-07T18:25:55.344Z,45.85
2018-04-07T18:28:23.943Z,46.56
2018-04-07T18:30:52.175Z,47.83
2018-04-07T18:33:20.700Z,48.47
2018-04-07T18:35:48.979Z,48.86
2018-04-07T18:38:17.399Z,49.35
2018-04-07T18:40:44.981Z,49.76
2018-04-07T18:43:12.599Z,50.07
2018-04-07T18:45:40.185Z,50.24
2018-04-07T18:48:07.769Z,50.92
2018-04-07T18:50:36.253Z,50.58
2018-04-07T18:53:04.619Z,51.12
2018-04-07T18:55:32.200Z,51.05
2018-04-07T18:57:59.787Z,51.37
2018-04-07T19:00:27.367Z,51.52
2018-04-07T19:02:54.948Z,51.97
2018-04-07T19:05:22.548Z,52.76
2018-04-07T19:07:50.128Z,52.65
2018-04-07T19:10:18.631Z,53.09
2018-04-07T19:12:46.240Z,53.07
2018-04-07T19:15:13.892Z,53.14
2018-04-07T19:17:41.547Z,54.00
2018-04-07T19:20:09.924Z,53.51
2018-04-07T19:22:37.703Z,53.48
2018-04-07T19:25:05.297Z,53.79
2018-04-07T19:27:32.884Z,53.51
2018-04-07T19:30:00.479Z,53.41
2018-04-07T19:32:28.067Z,53.43
2018-04-07T19:34:55.650Z,53.73
2018-04-07T19:37:23.233Z,54.92
2018-04-07T19:39:50.819Z,54.32
2018-04-07T19:42:18.461Z,54.61
2018-04-07T19:47:18.939Z,54.78
2018-04-07T19:49:46.524Z,55.27
2018-04-07T19:52:14.152Z,55.09
2018-04-07T19:54:41.863Z,55.30
2018-04-07T19:57:09.448Z,55.90
2018-04-07T19:59:37.035Z,55.77
2018-04-07T20:02:04.620Z,56.34
2018-04-07T20:04:32.204Z,56.31
2018-04-07T20:07:00.569Z,56.40
2018-04-07T20:09:28.215Z,56.65
2018-04-07T20:11:55.804Z,57.34
2018-04-07T20:14:23.395Z,57.52
2018-04-07T20:16:50.993Z,58.14
2018-04-07T20:19:18.665Z,58.36
2018-04-07T20:21:46.247Z,59.10
2018-04-07T20:24:13.843Z,58.82
2018-04-07T20:26:41.443Z,58.86
2018-04-07T20:29:09.028Z,59.20
2018-04-07T20:31:36.616Z,59.34
2018-04-07T20:34:04.230Z,59.21
2018-04-07T20:36:32.727Z,59.84
2018-04-07T20:39:01.124Z,59.98
2018-04-07T20:41:28.714Z,59.87
2018-04-07T20:43:56.304Z,59.26
2018-04-07T20:46:23.900Z,59.36
2018-04-07T20:48:51.566Z,59.49
2018-04-07T20:51:19.147Z,59.85
2018-04-07T20:53:46.723Z,59.92
2018-04-07T20:56:14.313Z,59.89
2018-04-07T20:58:42.679Z,59.56
2018-04-07T21:01:11.042Z,59.91
2018-04-07T21:03:39.408Z,59.98
2018-04-07T21:06:06.997Z,60.87
2018-04-07T21:08:34.583Z,60.75
2018-04-07T21:11:02.196Z,61.00
2018-04-07T21:13:29.781Z,61.47
2018-04-07T21:15:57.399Z,61.46
2018-04-07T21:18:24.981Z,61.33
2018-04-07T21:20:52.599Z,61.42
2018-04-07T21:23:20.182Z,61.79
2018-04-07T21:25:47.765Z,61.71
2018-04-07T21:28:15.375Z,61.84
2018-04-07T21:30:42.963Z,62.14
2018-04-07T21:33:10.591Z,62.31
2018-04-07T21:35:38.167Z,62.20
2018-04-07T21:38:06.655Z,62.90
2018-04-07T21:40:35.023Z,63.26
2018-04-07T21:43:03.412Z,64.44
2018-04-07T21:45:31.804Z,63.91
2018-04-07T21:48:00.179Z,63.64
2018-04-07T21:50:28.494Z,63.75
2018-04-07T21:52:56.814Z,63.05
2018-04-07T21:55:24.387Z,62.47
2018-04-07T21:57:51.967Z,63.32
2018-04-07T22:00:19.552Z,63.35
2018-04-07T22:02:47.165Z,62.48
2018-04-07T22:05:15.647Z,62.55
2018-04-07T22:07:43.950Z,63.88
2018-04-07T22:10:12.303Z,63.31
2018-04-07T22:12:40.622Z,63.79
2018-04-07T22:15:09.018Z,63.79
2018-04-07T22:17:37.490Z,63.14
2018-04-07T22:20:06.084Z,63.72
2018-04-07T22:22:33.704Z,63.66
2018-04-07T22:25:02.067Z,64.69
2018-04-07T22:27:30.432Z,65.33
2018-04-07T22:29:58.020Z,65.18
2018-04-07T22:32:25.611Z,65.71
2018-04-07T22:34:53.190Z,65.11
2018-04-07T22:37:21.671Z,65.15
2018-04-07T22:39:49.288Z,65.22
2018-04-07T22:42:17.789Z,64.65
2018-04-07T22:44:45.376Z,65.01
2018-04-07T22:47:12.992Z,64.75
2018-04-07T22:49:41.477Z,65.26
2018-04-07T22:52:09.151Z,65.48
2018-04-07T22:54:37.583Z,65.91
2018-04-07T22:57:05.188Z,65.75
2018-04-07T22:59:33.561Z,66.21
2018-04-07T23:02:01.144Z,66.58
2018-04-07T23:04:28.728Z,65.80
2018-04-07T23:06:56.304Z,65.95
2018-04-07T23:09:23.884Z,66.31
2018-04-07T23:11:51.471Z,66.10
2018-04-07T23:14:19.068Z,66.34
2018-04-07T23:16:47.431Z,65.91
2018-04-07T23:19:15.007Z,66.26
2018-04-07T23:21:42.596Z,66.11
2018-04-07T23:24:10.210Z,66.15
2018-04-07T23:26:37.790Z,66.89
2018-04-07T23:29:05.446Z,67.08
2018-04-07T23:31:33.027Z,67.76
2018-04-07T23:34:00.646Z,67.38
2018-04-07T23:36:28.231Z,68.33
2018-04-07T23:38:55.811Z,68.40
2018-04-07T23:41:23.399Z,68.68
2018-04-07T23:43:51.905Z,69.08
2018-04-07T23:46:19.517Z,69.20
2018-04-07T23:48:47.098Z,69.20
2018-04-07T23:51:15.451Z,68.81
2018-04-07T23:53:43.767Z,68.65
2018-04-07T23:56:11.344Z,69.24
2018-04-07T23:58:39.840Z,69.62
